createdAt,value
2023-09-13T00:08:47.421Z,100001.53
2023-09-13T00:18:50.203Z,99993.88
2023-09-13T00:28:52.335Z,99992.66
2023-09-13T00:38:54.210Z,99986.31
2023-09-13T00:48:56.809Z,99993.00
2023-09-13T00:58:58.766Z,99976.00
2023-09-13T01:09:05.108Z,99993.28
2023-09-13T01:19:51.541Z,99988.47
2023-09-13T01:29:54.452Z,100005.75
2023-09-13T01:39:59.871Z,100006.00
2023-09-13T01:50:04.137Z,100013.66
2023-09-13T02:00:06.844Z,100014.44
2023-09-13T02:10:09.945Z,100001.69
2023-09-13T02:20:13.512Z,100011.50
2023-09-13T02:30:15.303Z,100001.78
2023-09-13T02:40:18.220Z,99999.97
2023-09-13T02:50:20.036Z,100000.38
2023-09-13T03:00:25.002Z,99998.09
2023-09-13T03:10:30.191Z,99996.81
2023-09-13T03:20:31.938Z,99997.84
2023-09-13T03:30:35.788Z,99994.31
2023-09-13T03:40:37.504Z,99998.63
2023-09-13T03:50:39.236Z,99990.81
2023-09-13T04:00:41.020Z,99995.97
2023-09-13T04:10:42.801Z,100003.44
2023-09-13T04:20:45.707Z,100003.56
2023-09-13T04:30:49.647Z,100009.56
2023-09-13T04:40:51.356Z,100016.88
2023-09-13T04:50:53.173Z,100019.41
2023-09-13T05:00:54.973Z,100032.91
2023-09-13T05:10:56.757Z,100029.22
2023-09-13T05:20:59.872Z,100037.50
2023-09-13T05:31:02.146Z,100054.25
2023-09-13T05:41:11.949Z,100049.91
2023-09-13T05:51:13.753Z,100050.72
2023-09-13T06:01:15.489Z,100059.25
2023-09-13T06:11:20.644Z,100055.09
2023-09-13T06:21:22.707Z,100058.41
2023-09-13T06:31:33.140Z,100046.78
2023-09-13T06:41:36.761Z,100060.56
2023-09-13T07:11:48.345Z,100047.94
2023-09-13T07:21:52.304Z,100051.06
2023-09-13T07:31:54.150Z,100054.13
2023-09-13T07:41:55.943Z,100063.13
2023-09-13T07:51:57.680Z,100070.00
2023-09-13T08:02:01.504Z,100065.00
2023-09-13T08:12:04.759Z,100059.94
2023-09-13T08:22:06.749Z,100069.16
2023-09-13T08:32:08.794Z,100073.91
2023-09-13T08:42:16.923Z,100066.28
2023-09-13T08:52:19.335Z,100067.69
2023-09-13T09:02:26.325Z,100085.59
2023-09-13T09:12:28.940Z,100083.50
2023-09-13T09:22:31.655Z,100081.78
2023-09-13T09:32:39.577Z,100094.53
2023-09-13T09:42:41.476Z,100091.88
2023-09-13T09:52:44.529Z,100084.38
2023-09-13T10:02:47.274Z,100082.50
2023-09-13T10:12:52.238Z,100072.19
2023-09-13T10:22:59.313Z,100068.91
2023-09-13T10:33:04.950Z,100057.88
2023-09-13T10:43:09.647Z,100067.75
2023-09-13T10:53:15.299Z,100067.38
2023-09-13T11:03:19.817Z,100048.50
2023-09-13T11:13:32.761Z,100046.75
2023-09-13T11:23:59.962Z,100039.78
2023-09-13T11:34:06.072Z,100036.78
2023-09-13T11:44:24.609Z,100030.53
2023-09-13T11:54:30.388Z,100018.72
2023-09-13T12:04:51.963Z,100029.34
2023-09-13T12:15:01.815Z,100019.72
2023-09-13T12:25:06.174Z,100007.94
2023-09-13T12:35:08.343Z,99996.47
2023-09-13T12:45:10.924Z,99985.13
2023-09-13T12:55:12.786Z,99983.06
2023-09-13T13:05:15.313Z,99958.03
2023-09-13T13:15:17.431Z,99962.06
2023-09-13T13:25:23.386Z,99957.16
2023-09-13T13:35:25.592Z,99959.19
2023-09-13T13:45:27.778Z,99939.84
2023-09-13T13:55:31.097Z,99938.13
2023-09-13T14:05:33.341Z,99917.16
2023-09-13T14:15:38.745Z,99916.34
2023-09-13T14:25:44.648Z,99914.75
2023-09-13T14:35:47.777Z,99909.31
2023-09-13T14:45:50.324Z,99901.31
2023-09-13T14:55:58.867Z,99905.88
2023-09-13T15:06:01.080Z,99890.09
2023-09-13T15:16:05.126Z,99886.25
2023-09-13T15:26:07.036Z,99888.41
2023-09-13T15:36:08.786Z,99889.34
2023-09-13T15:46:16.848Z,99887.22
2023-09-13T15:56:19.496Z,99882.69
2023-09-13T16:06:21.349Z,99884.06
2023-09-13T16:16:28.531Z,99886.25
2023-09-13T16:26:33.929Z,99877.06
2023-09-13T16:36:36.349Z,99874.78
2023-09-13T16:46:38.991Z,99865.03
2023-09-13T16:56:41.316Z,99879.00
2023-09-13T17:06:43.318Z,99889.75
2023-09-13T17:16:48.324Z,99881.59
2023-09-13T17:27:00.015Z,99890.19
2023-09-13T17:37:10.171Z,99897.97
2023-09-13T17:47:14.784Z,99895.72
2023-09-13T17:57:18.232Z,99894.78
2023-09-13T18:07:24.639Z,99890.63
2023-09-13T18:17:35.093Z,99896.16
2023-09-13T18:27:46.318Z,99908.59
2023-09-13T18:37:50.504Z,99927.41
2023-09-13T18:47:53.295Z,99933.63
2023-09-13T18:57:56.286Z,99932.38
2023-09-13T19:08:02.181Z,99924.13
2023-09-13T19:18:05.286Z,99928.00
2023-09-13T19:28:07.673Z,99921.91
2023-09-13T19:38:23.735Z,99923.09
2023-09-13T19:48:31.930Z,99924.38
2023-09-13T19:58:37.933Z,99932.19
2023-09-13T20:08:40.153Z,99923.25
2023-09-13T20:18:43.865Z,99910.00
2023-09-13T20:28:48.859Z,99902.56
2023-09-13T20:38:51.855Z,99909.09
2023-09-13T20:48:54.042Z,99903.38
2023-09-13T20:58:56.102Z,99911.78
2023-09-13T21:08:58.091Z,99902.19
2023-09-13T21:19:01.532Z,99913.66
2023-09-13T21:29:03.421Z,99916.56
2023-09-13T21:39:05.724Z,99926.16
2023-09-13T21:49:11.486Z,99933.88
2023-09-13T21:59:15.239Z,99942.97
2023-09-13T22:09:17.029Z,99944.84
2023-09-13T22:19:18.809Z,99944.41
2023-09-13T22:29:22.093Z,99947.44
2023-09-13T22:39:23.928Z,99944.81
2023-09-13T22:49:30.075Z,99938.19
2023-09-13T22:59:34.089Z,99939.94
2023-09-13T23:09:35.894Z,99933.72
2023-09-13T23:19:37.744Z,99955.94
2023-09-13T23:29:39.446Z,99944.19
2023-09-13T23:39:41.320Z,99925.19
2023-09-13T23:49:44.037Z,99934.28
2023-09-13T23:59:47.543Z,99956.22
